Shawbury (EGOS)

METAR

EGOS 291215Z 33011KT 9999 BKN008 OVC025 14/12 Q0995 BLACKGRN

QNH
995
TEMP
14 °C
TAF

TAF TAF EGOS 171634Z 1718/1821 CNL